sensor_id;sensor_type;location;lat;lon;timestamp;pressure;altitude;pressure_sealevel;temperature;humidity
20424;BME280;10371;49.042;8.002;2023-03-12T00:00:51;99575.78;;;-0.85;88.76
20424;BME280;10371;49.042;8.002;2023-03-12T00:01:52;99572.28;;;-0.82;88.71
20424;BME280;10371;49.042;8.002;2023-03-12T00:02:52;99570.50;;;-0.80;88.94
20424;BME280;10371;49.042;8.002;2023-03-12T00:03:52;99570.50;;;-0.80;88.96
20424;BME280;10371;49.042;8.002;2023-03-12T00:04:55;99572.16;;;-0.79;88.79
20424;BME280;10371;49.042;8.002;2023-03-12T00:05:56;99565.31;;;-0.79;88.58
20424;BME280;10371;49.042;8.002;2023-03-12T00:06:56;99571.22;;;-0.77;88.86
20424;BME280;10371;49.042;8.002;2023-03-12T00:07:56;99572.13;;;-0.78;88.78
20424;BME280;10371;49.042;8.002;2023-03-12T00:08:58;99572.94;;;-0.77;88.39
20424;BME280;10371;49.042;8.002;2023-03-12T00:10:02;99570.44;;;-0.79;88.86
20424;BME280;10371;49.042;8.002;2023-03-12T00:11:11;99573.19;;;-0.83;88.77
20424;BME280;10371;49.042;8.002;2023-03-12T00:12:12;99562.19;;;-0.85;88.90
20424;BME280;10371;49.042;8.002;2023-03-12T00:13:12;99563.84;;;-0.84;88.70
20424;BME280;10371;49.042;8.002;2023-03-12T00:14:13;99564.66;;;-0.84;89.08
20424;BME280;10371;49.042;8.002;2023-03-12T00:15:13;99564.75;;;-0.85;88.60
20424;BME280;10371;49.042;8.002;2023-03-12T00:16:14;99565.59;;;-0.86;88.90
20424;BME280;10371;49.042;8.002;2023-03-12T00:17:15;99574.06;;;-0.84;88.97
20424;BME280;10371;49.042;8.002;2023-03-12T00:18:15;99575.75;;;-0.83;88.59
20424;BME280;10371;49.042;8.002;2023-03-12T00:19:15;99571.47;;;-0.83;88.47
20424;BME280;10371;49.042;8.002;2023-03-12T00:20:16;99570.63;;;-0.83;88.63
20424;BME280;10371;49.042;8.002;2023-03-12T00:21:18;99570.63;;;-0.83;88.60
20424;BME280;10371;49.042;8.002;2023-03-12T00:22:19;99572.41;;;-0.85;88.72
20424;BME280;10371;49.042;8.002;2023-03-12T00:23:24;99567.72;;;-0.98;88.89
20424;BME280;10371;49.042;8.002;2023-03-12T00:24:24;99572.22;;;-1.03;88.99
20424;BME280;10371;49.042;8.002;2023-03-12T00:25:25;99577.41;;;-1.06;89.00
20424;BME280;10371;49.042;8.002;2023-03-12T00:26:25;99574.13;;;-1.09;89.46
20424;BME280;10371;49.042;8.002;2023-03-12T00:27:26;99574.22;;;-1.11;89.84
20424;BME280;10371;49.042;8.002;2023-03-12T00:28:26;99575.97;;;-1.13;89.98
20424;BME280;10371;49.042;8.002;2023-03-12T00:29:27;99577.63;;;-1.12;90.19
20424;BME280;10371;49.042;8.002;2023-03-12T00:30:27;99574.31;;;-1.14;90.37
20424;BME280;10371;49.042;8.002;2023-03-12T00:31:30;99572.53;;;-1.12;90.64
20424;BME280;10371;49.042;8.002;2023-03-12T00:32:34;99577.63;;;-1.12;90.36
20424;BME280;10371;49.042;8.002;2023-03-12T00:33:34;99577.59;;;-1.10;90.59
20424;BME280;10371;49.042;8.002;2023-03-12T00:34:35;99578.31;;;-1.07;90.81
20424;BME280;10371;49.042;8.002;2023-03-12T00:35:38;99580.75;;;-1.04;90.32
20424;BME280;10371;49.042;8.002;2023-03-12T00:36:38;99576.47;;;-1.03;90.45
20424;BME280;10371;49.042;8.002;2023-03-12T00:37:40;99567.97;;;-1.04;90.54
20424;BME280;10371;49.042;8.002;2023-03-12T00:38:40;99567.84;;;-1.01;90.47
20424;BME280;10371;49.042;8.002;2023-03-12T00:39:40;99569.53;;;-1.00;90.56
20424;BME280;10371;49.042;8.002;2023-03-12T00:40:41;99572.09;;;-1.00;90.10
20424;BME280;10371;49.042;8.002;2023-03-12T00:41:41;99578.84;;;-0.99;90.61
20424;BME280;10371;49.042;8.002;2023-03-12T00:42:41;99572.84;;;-0.98;90.48
20424;BME280;10371;49.042;8.002;2023-03-12T00:43:41;99577.09;;;-0.97;90.80
20424;BME280;10371;49.042;8.002;2023-03-12T00:44:42;99578.75;;;-0.96;90.60
20424;BME280;10371;49.042;8.002;2023-03-12T00:45:44;99568.53;;;-0.96;90.58
20424;BME280;10371;49.042;8.002;2023-03-12T00:46:44;99579.63;;;-0.97;90.85
20424;BME280;10371;49.042;8.002;2023-03-12T00:47:44;99588.09;;;-0.95;90.98
20424;BME280;10371;49.042;8.002;2023-03-12T00:48:45;99583.72;;;-0.93;90.75
20424;BME280;10371;49.042;8.002;2023-03-12T00:49:45;99582.84;;;-0.92;90.93
20424;BME280;10371;49.042;8.002;2023-03-12T00:50:45;99576.06;;;-0.93;91.12
20424;BME280;10371;49.042;8.002;2023-03-12T00:51:45;99586.28;;;-0.93;90.84
20424;BME280;10371;49.042;8.002;2023-03-12T00:52:46;99581.16;;;-0.93;91.10
20424;BME280;10371;49.042;8.002;2023-03-12T00:53:46;99591.22;;;-0.88;90.73
20424;BME280;10371;49.042;8.002;2023-03-12T00:54:47;99576.59;;;-0.84;91.41
20424;BME280;10371;49.042;8.002;2023-03-12T00:55:47;99575.78;;;-0.85;90.54
20424;BME280;10371;49.042;8.002;2023-03-12T00:56:48;99576.50;;;-0.81;90.79
20424;BME280;10371;49.042;8.002;2023-03-12T00:57:48;99577.22;;;-0.78;90.71
20424;BME280;10371;49.042;8.002;2023-03-12T00:58:48;99579.53;;;-0.72;90.81
20424;BME280;10371;49.042;8.002;2023-03-12T00:59:49;99571.81;;;-0.70;90.82
20424;BME280;10371;49.042;8.002;2023-03-12T01:00:49;99579.34;;;-0.67;90.62
20424;BME280;10371;49.042;8.002;2023-03-12T01:01:49;99570.81;;;-0.66;90.74
20424;BME280;10371;49.042;8.002;2023-03-12T01:02:50;99575.81;;;-0.63;90.36
20424;BME280;10371;49.042;8.002;2023-03-12T01:03:50;99573.13;;;-0.60;90.64
20424;BME280;10371;49.042;8.002;2023-03-12T01:04:53;99568.78;;;-0.58;90.49
20424;BME280;10371;49.042;8.002;2023-03-12T01:05:53;99578.06;;;-0.55;90.28
20424;BME280;10371;49.042;8.002;2023-03-12T01:06:54;99577.94;;;-0.52;90.30
20424;BME280;10371;49.042;8.002;2023-03-12T01:07:54;99575.25;;;-0.49;90.34
20424;BME280;10371;49.042;8.002;2023-03-12T01:08:55;99573.66;;;-0.52;90.43
20424;BME280;10371;49.042;8.002;2023-03-12T01:09:55;99573.41;;;-0.46;90.10
20424;BME280;10371;49.042;8.002;2023-03-12T01:10:55;99581.84;;;-0.43;90.08
20424;BME280;10371;49.042;8.002;2023-03-12T01:11:56;99574.97;;;-0.41;89.85
20424;BME280;10371;49.042;8.002;2023-03-12T01:12:57;99574.97;;;-0.41;89.87
20424;BME280;10371;49.042;8.002;2023-03-12T01:14:02;99580.78;;;-0.38;89.74
20424;BME280;10371;49.042;8.002;2023-03-12T01:15:03;99571.38;;;-0.37;89.53
20424;BME280;10371;49.042;8.002;2023-03-12T01:16:04;99562.81;;;-0.36;89.57
20424;BME280;10371;49.042;8.002;2023-03-12T01:17:04;99563.59;;;-0.34;89.56
20424;BME280;10371;49.042;8.002;2023-03-12T01:18:04;99572.81;;;-0.30;89.90
20424;BME280;10371;49.042;8.002;2023-03-12T01:19:05;99565.97;;;-0.30;89.64
20424;BME280;10371;49.042;8.002;2023-03-12T01:20:06;99569.34;;;-0.29;89.58
20424;BME280;10371;49.042;8.002;2023-03-12T01:21:07;99566.09;;;-0.33;89.29
20424;BME280;10371;49.042;8.002;2023-03-12T01:22:07;99565.19;;;-0.32;89.24
20424;BME280;10371;49.042;8.002;2023-03-12T01:23:08;99571.09;;;-0.30;88.96
20424;BME280;10371;49.042;8.002;2023-03-12T01:24:08;99577.84;;;-0.29;88.81
20424;BME280;10371;49.042;8.002;2023-03-12T01:25:09;99576.97;;;-0.28;88.88
20424;BME280;10371;49.042;8.002;2023-03-12T01:26:10;99570.06;;;-0.26;89.04
20424;BME280;10371;49.042;8.002;2023-03-12T01:27:10;99568.22;;;-0.22;89.12
20424;BME280;10371;49.042;8.002;2023-03-12T01:28:10;99568.22;;;-0.22;89.08
20424;BME280;10371;49.042;8.002;2023-03-12T01:29:11;99562.06;;;-0.18;88.74
20424;BME280;10371;49.042;8.002;2023-03-12T01:30:11;99562.78;;;-0.14;88.74
20424;BME280;10371;49.042;8.002;2023-03-12T01:31:14;99567.75;;;-0.11;89.00
20424;BME280;10371;49.042;8.002;2023-03-12T01:32:14;99568.63;;;-0.11;89.01
20424;BME280;10371;49.042;8.002;2023-03-12T01:33:16;99571.78;;;-0.06;88.84
20424;BME280;10371;49.042;8.002;2023-03-12T01:34:17;99572.56;;;-0.04;88.35
20424;BME280;10371;49.042;8.002;2023-03-12T01:35:18;99561.47;;;-0.03;88.39
20424;BME280;10371;49.042;8.002;2023-03-12T01:36:23;99572.41;;;0.01;88.40
20424;BME280;10371;49.042;8.002;2023-03-12T01:37:25;99565.53;;;0.02;88.43
20424;BME280;10371;49.042;8.002;2023-03-12T01:38:26;99557.88;;;0.02;88.39
20424;BME280;10371;49.042;8.002;2023-03-12T01:39:26;99565.41;;;0.05;88.23
20424;BME280;10371;49.042;8.002;2023-03-12T01:40:26;99556.09;;;0.04;87.94
20424;BME280;10371;49.042;8.002;2023-03-12T01:41:29;99561.13;;;0.05;88.18
20424;BME280;10371;49.042;8.002;2023-03-12T01:42:33;99559.41;;;0.06;87.64
20424;BME280;10371;49.042;8.002;2023-03-12T01:43:36;99563.69;;;0.05;87.72
20424;BME280;10371;49.042;8.002;2023-03-12T01:44:50;99559.47;;;0.04;87.60
20424;BME280;10371;49.042;8.002;2023-03-12T01:46:54;99554.41;;;0.03;87.40
20424;BME280;10371;49.042;8.002;2023-03-12T01:47:54;99556.84;;;0.06;87.05
20424;BME280;10371;49.042;8.002;2023-03-12T01:50:01;99551.59;;;0.09;87.42
20424;BME280;10371;49.042;8.002;2023-03-12T01:51:03;99544.75;;;0.09;87.24
20424;BME280;10371;49.042;8.002;2023-03-12T01:52:06;99543.81;;;0.12;87.46
20424;BME280;10371;49.042;8.002;2023-03-12T01:53:08;99541.94;;;0.15;87.42
20424;BME280;10371;49.042;8.002;2023-03-12T01:54:13;99540.06;;;0.19;87.15
20424;BME280;10371;49.042;8.002;2023-03-12T01:55:15;99551.84;;;0.23;87.42
20424;BME280;10371;49.042;8.002;2023-03-12T01:56:17;99542.44;;;0.24;87.53
20424;BME280;10371;49.042;8.002;2023-03-12T01:57:23;99540.66;;;0.26;87.20
20424;BME280;10371;49.042;8.002;2023-03-12T01:58:26;99537.19;;;0.27;87.18
20424;BME280;10371;49.042;8.002;2023-03-12T01:59:32;99542.16;;;0.30;87.22
20424;BME280;10371;49.042;8.002;2023-03-12T02:00:34;99536.09;;;0.32;87.18
20424;BME280;10371;49.042;8.002;2023-03-12T02:01:34;99532.56;;;0.35;86.85
20424;BME280;10371;49.042;8.002;2023-03-12T02:02:36;99544.41;;;0.37;86.60
20424;BME280;10371;49.042;8.002;2023-03-12T02:03:37;99534.94;;;0.39;86.56
20424;BME280;10371;49.042;8.002;2023-03-12T02:04:39;99550.09;;;0.44;86.46
20424;BME280;10371;49.042;8.002;2023-03-12T02:06:10;99545.75;;;0.46;86.22
20424;BME280;10371;49.042;8.002;2023-03-12T02:07:14;99540.41;;;0.51;86.23
20424;BME280;10371;49.042;8.002;2023-03-12T02:08:15;99543.72;;;0.53;86.33
20424;BME280;10371;49.042;8.002;2023-03-12T02:09:17;99533.44;;;0.54;86.27
20424;BME280;10371;49.042;8.002;2023-03-12T02:10:20;99536.69;;;0.58;86.25
20424;BME280;10371;49.042;8.002;2023-03-12T02:11:21;99532.47;;;0.57;85.87
20424;BME280;10371;49.042;8.002;2023-03-12T02:12:21;99527.41;;;0.55;85.82
20424;BME280;10371;49.042;8.002;2023-03-12T02:13:21;99538.34;;;0.59;85.94
20424;BME280;10371;49.042;8.002;2023-03-12T02:14:21;99524.63;;;0.60;85.99
20424;BME280;10371;49.042;8.002;2023-03-12T02:15:22;99521.31;;;0.58;85.88
20424;BME280;10371;49.042;8.002;2023-03-12T02:16:23;99520.34;;;0.60;85.64
20424;BME280;10371;49.042;8.002;2023-03-12T02:17:24;99521.88;;;0.64;85.63
20424;BME280;10371;49.042;8.002;2023-03-12T02:18:24;99517.59;;;0.65;85.93
20424;BME280;10371;49.042;8.002;2023-03-12T02:19:32;99521.81;;;0.66;85.71
20424;BME280;10371;49.042;8.002;2023-03-12T02:21:37;99519.38;;;0.63;85.69
20424;BME280;10371;49.042;8.002;2023-03-12T02:22:40;99520.75;;;0.51;85.87
20424;BME280;10371;49.042;8.002;2023-03-12T02:23:54;99519.44;;;0.42;86.56
20424;BME280;10371;49.042;8.002;2023-03-12T02:24:58;99516.88;;;0.42;87.15
20424;BME280;10371;49.042;8.002;2023-03-12T02:26:03;99523.78;;;0.40;87.76
20424;BME280;10371;49.042;8.002;2023-03-12T02:27:05;99519.34;;;0.44;87.76
20424;BME280;10371;49.042;8.002;2023-03-12T02:28:10;99522.56;;;0.49;87.70
20424;BME280;10371;49.042;8.002;2023-03-12T02:29:11;99518.34;;;0.48;87.68
20424;BME280;10371;49.042;8.002;2023-03-12T02:30:12;99522.50;;;0.51;87.64
20424;BME280;10371;49.042;8.002;2023-03-12T02:31:22;99520.69;;;0.53;87.90
20424;BME280;10371;49.042;8.002;2023-03-12T02:32:32;99521.31;;;0.58;87.60
20424;BME280;10371;49.042;8.002;2023-03-12T02:33:34;99525.59;;;0.57;87.69
20424;BME280;10371;49.042;8.002;2023-03-12T02:34:34;99528.13;;;0.59;87.62
20424;BME280;10371;49.042;8.002;2023-03-12T02:35:36;99524.63;;;0.60;87.75
20424;BME280;10371;49.042;8.002;2023-03-12T02:36:36;99526.28;;;0.61;87.86
20424;BME280;10371;49.042;8.002;2023-03-12T02:37:46;99531.16;;;0.67;88.04
20424;BME280;10371;49.042;8.002;2023-03-12T02:38:49;99531.09;;;0.69;88.12
20424;BME280;10371;49.042;8.002;2023-03-12T02:39:59;99530.13;;;0.71;88.00
20424;BME280;10371;49.042;8.002;2023-03-12T02:41:11;99536.84;;;0.74;88.08
20424;BME280;10371;49.042;8.002;2023-03-12T02:42:12;99534.19;;;0.75;88.20
20424;BME280;10371;49.042;8.002;2023-03-12T02:43:13;99536.63;;;0.78;88.02
20424;BME280;10371;49.042;8.002;2023-03-12T02:44:19;99533.16;;;0.79;88.14
20424;BME280;10371;49.042;8.002;2023-03-12T02:45:19;99533.94;;;0.81;88.25
20424;BME280;10371;49.042;8.002;2023-03-12T02:46:20;99526.16;;;0.83;88.14
20424;BME280;10371;49.042;8.002;2023-03-12T02:47:21;99527.00;;;0.83;88.15
20424;BME280;10371;49.042;8.002;2023-03-12T02:48:21;99529.44;;;0.86;88.29
20424;BME280;10371;49.042;8.002;2023-03-12T02:49:23;99526.03;;;0.86;88.23
20424;BME280;10371;49.042;8.002;2023-03-12T02:50:24;99517.66;;;0.82;88.20
20424;BME280;10371;49.042;8.002;2023-03-12T02:51:24;99517.59;;;0.84;88.29
20424;BME280;10371;49.042;8.002;2023-03-12T02:52:24;99513.28;;;0.84;88.40
20424;BME280;10371;49.042;8.002;2023-03-12T02:53:25;99515.09;;;0.82;88.23
20424;BME280;10371;49.042;8.002;2023-03-12T02:54:25;99512.53;;;0.82;88.29
20424;BME280;10371;49.042;8.002;2023-03-12T02:55:26;99523.59;;;0.83;88.15
20424;BME280;10371;49.042;8.002;2023-03-12T02:56:27;99520.22;;;0.82;87.85
20424;BME280;10371;49.042;8.002;2023-03-12T02:57:28;99524.38;;;0.85;87.56
20424;BME280;10371;49.042;8.002;2023-03-12T02:58:28;99527.69;;;0.87;87.80
20424;BME280;10371;49.042;8.002;2023-03-12T02:59:28;99523.25;;;0.91;87.77
20424;BME280;10371;49.042;8.002;2023-03-12T03:00:28;99528.09;;;0.97;87.54
20424;BME280;10371;49.042;8.002;2023-03-12T03:01:31;99520.41;;;0.97;87.30
20424;BME280;10371;49.042;8.002;2023-03-12T03:02:34;99524.50;;;1.01;87.60
20424;BME280;10371;49.042;8.002;2023-03-12T03:03:34;99511.75;;;0.99;87.29
20424;BME280;10371;49.042;8.002;2023-03-12T03:04:34;99516.81;;;1.01;87.27
20424;BME280;10371;49.042;8.002;2023-03-12T03:05:35;99515.13;;;1.00;86.77
20424;BME280;10371;49.042;8.002;2023-03-12T03:06:39;99510.94;;;0.99;86.98
20424;BME280;10371;49.042;8.002;2023-03-12T03:07:40;99511.69;;;1.01;86.89
20424;BME280;10371;49.042;8.002;2023-03-12T03:08:40;99513.28;;;1.03;87.00
20424;BME280;10371;49.042;8.002;2023-03-12T03:09:40;99514.88;;;1.06;86.79
20424;BME280;10371;49.042;8.002;2023-03-12T03:10:41;99515.69;;;1.06;86.62
20424;BME280;10371;49.042;8.002;2023-03-12T03:11:41;99523.25;;;1.09;86.84
20424;BME280;10371;49.042;8.002;2023-03-12T03:12:41;99526.50;;;1.13;86.93
20424;BME280;10371;49.042;8.002;2023-03-12T03:13:42;99520.44;;;1.14;87.10
20424;BME280;10371;49.042;8.002;2023-03-12T03:14:42;99522.13;;;1.15;87.20
20424;BME280;10371;49.042;8.002;2023-03-12T03:15:42;99510.06;;;1.17;86.83
20424;BME280;10371;49.042;8.002;2023-03-12T03:16:42;99509.22;;;1.17;87.13
20424;BME280;10371;49.042;8.002;2023-03-12T03:17:43;99508.41;;;1.16;86.79
20424;BME280;10371;49.042;8.002;2023-03-12T03:18:43;99509.22;;;1.17;86.61
20424;BME280;10371;49.042;8.002;2023-03-12T03:19:43;99510.81;;;1.19;86.71
20424;BME280;10371;49.042;8.002;2023-03-12T03:20:44;99499.94;;;1.14;86.75
20424;BME280;10371;49.042;8.002;2023-03-12T03:21:44;99501.78;;;1.12;87.07
20424;BME280;10371;49.042;8.002;2023-03-12T03:22:44;99509.22;;;1.17;87.08
20424;BME280;10371;49.042;8.002;2023-03-12T03:23:46;99508.53;;;1.13;86.80
20424;BME280;10371;49.042;8.002;2023-03-12T03:24:47;99504.16;;;0.98;86.84
20424;BME280;10371;49.042;8.002;2023-03-12T03:25:48;99509.13;;;1.01;87.09
20424;BME280;10371;49.042;8.002;2023-03-12T03:26:48;99502.94;;;1.05;87.27
20424;BME280;10371;49.042;8.002;2023-03-12T03:27:49;99501.91;;;1.09;87.41
20424;BME280;10371;49.042;8.002;2023-03-12T03:28:50;99500.78;;;1.15;87.57
20424;BME280;10371;49.042;8.002;2023-03-12T03:29:50;99495.53;;;1.18;87.54
20424;BME280;10371;49.042;8.002;2023-03-12T03:30:52;99493.69;;;1.20;87.37
20424;BME280;10371;49.042;8.002;2023-03-12T03:31:53;99486.00;;;1.20;87.40
20424;BME280;10371;49.042;8.002;2023-03-12T03:32:53;99490.16;;;1.22;87.59
20424;BME280;10371;49.042;8.002;2023-03-12T03:33:53;99488.31;;;1.26;87.40
20424;BME280;10371;49.042;8.002;2023-03-12T03:34:54;99493.47;;;1.24;87.27
20424;BME280;10371;49.042;8.002;2023-03-12T03:35:55;99493.47;;;1.24;87.26
20424;BME280;10371;49.042;8.002;2023-03-12T03:36:55;99492.88;;;1.19;86.85
20424;BME280;10371;49.042;8.002;2023-03-12T03:37:55;99496.34;;;1.18;86.88
20424;BME280;10371;49.042;8.002;2023-03-12T03:38:56;99497.47;;;1.13;86.88
20424;BME280;10371;49.042;8.002;2023-03-12T03:39:56;99492.41;;;1.11;86.92
20424;BME280;10371;49.042;8.002;2023-03-12T03:40:56;99495.81;;;1.11;86.62
20424;BME280;10371;49.042;8.002;2023-03-12T03:41:57;99490.91;;;1.07;86.76
20424;BME280;10371;49.042;8.002;2023-03-12T03:42:57;99501.06;;;1.08;86.70
20424;BME280;10371;49.042;8.002;2023-03-12T03:43:58;99495.94;;;1.08;86.88
20424;BME280;10371;49.042;8.002;2023-03-12T03:44:58;99503.56;;;1.10;86.61
20424;BME280;10371;49.042;8.002;2023-03-12T03:46:00;99510.34;;;1.11;87.02
20424;BME280;10371;49.042;8.002;2023-03-12T03:47:01;99505.81;;;0.99;87.13
20424;BME280;10371;49.042;8.002;2023-03-12T03:48:02;99500.47;;;0.84;87.75
20424;BME280;10371;49.042;8.002;2023-03-12T03:49:02;99504.34;;;0.74;88.42
20424;BME280;10371;49.042;8.002;2023-03-12T03:50:04;99509.06;;;0.64;89.32
20424;BME280;10371;49.042;8.002;2023-03-12T03:51:06;99506.91;;;0.55;90.46
20424;BME280;10371;49.042;8.002;2023-03-12T03:52:06;99507.88;;;0.53;91.43
20424;BME280;10371;49.042;8.002;2023-03-12T03:53:08;99499.44;;;0.51;92.25
20424;BME280;10371;49.042;8.002;2023-03-12T03:54:09;99498.59;;;0.50;93.46
20424;BME280;10371;49.042;8.002;2023-03-12T03:55:09;99505.94;;;0.58;94.26
20424;BME280;10371;49.042;8.002;2023-03-12T03:56:13;99501.31;;;0.66;94.55
20424;BME280;10371;49.042;8.002;2023-03-12T03:57:13;99501.44;;;0.63;94.64
20424;BME280;10371;49.042;8.002;2023-03-12T03:58:13;99513.63;;;0.58;95.20
20424;BME280;10371;49.042;8.002;2023-03-12T03:59:14;99510.78;;;0.64;95.44
20424;BME280;10371;49.042;8.002;2023-03-12T04:00:14;99507.88;;;0.72;95.32
20424;BME280;10371;49.042;8.002;2023-03-12T04:01:17;99504.31;;;0.76;95.40
20424;BME280;10371;49.042;8.002;2023-03-12T04:02:17;99504.00;;;0.82;95.47
20424;BME280;10371;49.042;8.002;2023-03-12T04:03:18;99508.16;;;0.84;95.17
20424;BME280;10371;49.042;8.002;2023-03-12T04:04:18;99513.00;;;0.91;95.09
20424;BME280;10371;49.042;8.002;2023-03-12T04:05:18;99510.00;;;1.00;95.01
20424;BME280;10371;49.042;8.002;2023-03-12T04:06:19;99513.13;;;1.06;94.54
20424;BME280;10371;49.042;8.002;2023-03-12T04:07:20;99514.44;;;1.15;94.66
20424;BME280;10371;49.042;8.002;2023-03-12T04:08:20;99519.22;;;1.23;94.58
20424;BME280;10371;49.042;8.002;2023-03-12T04:09:20;99519.88;;;1.26;94.15
20424;BME280;10371;49.042;8.002;2023-03-12T04:10:23;99524.47;;;1.20;93.57
20424;BME280;10371;49.042;8.002;2023-03-12T04:11:23;99524.69;;;1.15;93.18
20424;BME280;10371;49.042;8.002;2023-03-12T04:12:23;99520.59;;;1.11;93.17
20424;BME280;10371;49.042;8.002;2023-03-12T04:13:25;99525.88;;;1.08;93.56
20424;BME280;10371;49.042;8.002;2023-03-12T04:14:25;99524.56;;;0.99;94.09
20424;BME280;10371;49.042;8.002;2023-03-12T04:15:25;99525.19;;;1.04;94.64
20424;BME280;10371;49.042;8.002;2023-03-12T04:16:26;99530.69;;;1.14;94.95
20424;BME280;10371;49.042;8.002;2023-03-12T04:17:27;99533.75;;;1.22;95.14
20424;BME280;10371;49.042;8.002;2023-03-12T04:18:27;99535.13;;;1.29;94.98
20424;BME280;10371;49.042;8.002;2023-03-12T04:19:27;99531.59;;;1.32;95.20
20424;BME280;10371;49.042;8.002;2023-03-12T04:20:27;99529.69;;;1.36;95.08
20424;BME280;10371;49.042;8.002;2023-03-12T04:21:28;99531.38;;;1.37;95.31
20424;BME280;10371;49.042;8.002;2023-03-12T04:22:28;99534.84;;;1.36;95.26
20424;BME280;10371;49.042;8.002;2023-03-12T04:23:28;99531.78;;;1.27;95.60
20424;BME280;10371;49.042;8.002;2023-03-12T04:24:29;99534.03;;;1.16;96.66
20424;BME280;10371;49.042;8.002;2023-03-12T04:25:29;99535.16;;;1.10;97.02
20424;BME280;10371;49.042;8.002;2023-03-12T04:26:30;99532.53;;;1.12;97.69
20424;BME280;10371;49.042;8.002;2023-03-12T04:27:30;99534.03;;;1.16;98.00
20424;BME280;10371;49.042;8.002;2023-03-12T04:28:30;99526.63;;;1.10;98.84
20424;BME280;10371;49.042;8.002;2023-03-12T04:29:30;99528.38;;;1.09;98.51
20424;BME280;10371;49.042;8.002;2023-03-12T04:30:31;99526.50;;;1.13;98.69
20424;BME280;10371;49.042;8.002;2023-03-12T04:31:32;99523.63;;;1.19;98.61
20424;BME280;10371;49.042;8.002;2023-03-12T04:32:32;99525.16;;;1.23;98.21
20424;BME280;10371;49.042;8.002;2023-03-12T04:33:36;99526.53;;;1.30;98.22
20424;BME280;10371;49.042;8.002;2023-03-12T04:34:36;99524.56;;;1.36;98.07
20424;BME280;10371;49.042;8.002;2023-03-12T04:35:37;99513.63;;;1.32;97.74
20424;BME280;10371;49.042;8.002;2023-03-12T04:36:37;99528.66;;;1.40;97.53
20424;BME280;10371;49.042;8.002;2023-03-12T04:37:37;99522.31;;;1.47;97.26
20424;BME280;10371;49.042;8.002;2023-03-12T04:38:38;99524.84;;;1.48;97.03
20424;BME280;10371;49.042;8.002;2023-03-12T04:39:39;99522.03;;;1.53;96.85
20424;BME280;10371;49.042;8.002;2023-03-12T04:40:39;99517.66;;;1.55;96.62
20424;BME280;10371;49.042;8.002;2023-03-12T04:41:40;99516.75;;;1.56;96.27
20424;BME280;10371;49.042;8.002;2023-03-12T04:42:40;99520.06;;;1.58;95.56
20424;BME280;10371;49.042;8.002;2023-03-12T04:43:40;99514.13;;;1.58;95.04
20424;BME280;10371;49.042;8.002;2023-03-12T04:44:40;99508.69;;;1.64;94.96
20424;BME280;10371;49.042;8.002;2023-03-12T04:45:41;99511.84;;;1.69;94.49
20424;BME280;10371;49.042;8.002;2023-03-12T04:46:41;99513.44;;;1.71;94.35
20424;BME280;10371;49.042;8.002;2023-03-12T04:47:42;99504.91;;;1.71;93.97
20424;BME280;10371;49.042;8.002;2023-03-12T04:48:42;99506.66;;;1.70;93.85
20424;BME280;10371;49.042;8.002;2023-03-12T04:49:43;99515.41;;;1.66;94.01
20424;BME280;10371;49.042;8.002;2023-03-12T04:50:43;99507.09;;;1.61;94.22
20424;BME280;10371;49.042;8.002;2023-03-12T04:51:43;99507.09;;;1.61;94.28
20424;BME280;10371;49.042;8.002;2023-03-12T04:52:44;99502.72;;;1.63;94.38
20424;BME280;10371;49.042;8.002;2023-03-12T04:53:44;99505.06;;;1.68;94.64
20424;BME280;10371;49.042;8.002;2023-03-12T04:54:44;99505.38;;;1.62;94.79
20424;BME280;10371;49.042;8.002;2023-03-12T04:55:45;99503.66;;;1.62;95.04
20424;BME280;10371;49.042;8.002;2023-03-12T04:56:46;99499.41;;;1.61;95.21
20424;BME280;10371;49.042;8.002;2023-03-12T04:57:46;99505.66;;;1.55;95.90
20424;BME280;10371;49.042;8.002;2023-03-12T04:58:46;99495.69;;;1.49;96.28
20424;BME280;10371;49.042;8.002;2023-03-12T04:59:47;99500.31;;;1.43;96.62
20424;BME280;10371;49.042;8.002;2023-03-12T05:00:48;99493.81;;;1.36;97.03
20424;BME280;10371;49.042;8.002;2023-03-12T05:01:49;99495.47;;;1.37;97.47
20424;BME280;10371;49.042;8.002;2023-03-12T05:02:50;99497.97;;;1.38;97.72
20424;BME280;10371;49.042;8.002;2023-03-12T05:03:51;99493.03;;;1.33;97.93
20424;BME280;10371;49.042;8.002;2023-03-12T05:04:54;99493.81;;;1.36;98.14
20424;BME280;10371;49.042;8.002;2023-03-12T05:05:55;99493.03;;;1.33;98.16
20424;BME280;10371;49.042;8.002;2023-03-12T05:06:55;99486.78;;;1.22;98.35
20424;BME280;10371;49.042;8.002;2023-03-12T05:07:55;99481.78;;;1.19;98.94
20424;BME280;10371;49.042;8.002;2023-03-12T05:08:55;99490.31;;;1.19;99.20
20424;BME280;10371;49.042;8.002;2023-03-12T05:09:56;99496.41;;;1.17;99.85
20424;BME280;10371;49.042;8.002;2023-03-12T05:10:56;99494.00;;;1.14;99.82
20424;BME280;10371;49.042;8.002;2023-03-12T05:11:56;99494.81;;;1.14;99.87
20424;BME280;10371;49.042;8.002;2023-03-12T05:12:57;99502.50;;;1.14;100.00
20424;BME280;10371;49.042;8.002;2023-03-12T05:13:57;99497.25;;;1.17;100.00
20424;BME280;10371;49.042;8.002;2023-03-12T05:14:57;99486.25;;;1.15;100.00
20424;BME280;10371;49.042;8.002;2023-03-12T05:15:58;99477.63;;;1.16;100.00
20424;BME280;10371;49.042;8.002;2023-03-12T05:16:58;99487.75;;;1.19;100.00
20424;BME280;10371;49.042;8.002;2023-03-12T05:17:58;99482.75;;;1.16;100.00
20424;BME280;10371;49.042;8.002;2023-03-12T05:18:58;99493.94;;;1.15;100.00
20424;BME280;10371;49.042;8.002;2023-03-12T05:19:59;99480.19;;;1.16;100.00
20424;BME280;10371;49.042;8.002;2023-03-12T05:21:01;99481.88;;;1.17;100.00
20424;BME280;10371;49.042;8.002;2023-03-12T05:22:02;99481.94;;;1.16;100.00
20424;BME280;10371;49.042;8.002;2023-03-12T05:23:02;99482.56;;;1.21;100.00
20424;BME280;10371;49.042;8.002;2023-03-12T05:24:03;99476.50;;;1.22;100.00
20424;BME280;10371;49.042;8.002;2023-03-12T05:25:04;99470.72;;;1.18;100.00
20424;BME280;10371;49.042;8.002;2023-03-12T05:26:05;99474.94;;;1.19;100.00
20424;BME280;10371;49.042;8.002;2023-03-12T05:27:06;99473.13;;;1.21;100.00
20424;BME280;10371;49.042;8.002;2023-03-12T05:28:07;99470.41;;;1.24;100.00
20424;BME280;10371;49.042;8.002;2023-03-12T05:29:07;99471.19;;;1.26;100.00
20424;BME280;10371;49.042;8.002;2023-03-12T05:30:08;99463.63;;;1.23;100.00
20424;BME280;10371;49.042;8.002;2023-03-12T05:31:10;99480.66;;;1.24;100.00